createdAt,value
2019-05-11T00:00:22.714Z,2.27
2019-05-11T00:02:50.577Z,2.20
2019-05-11T00:05:18.481Z,2.13
2019-05-11T00:07:46.201Z,2.23
2019-05-11T00:10:14.286Z,1.80
2019-05-11T00:12:41.943Z,1.90
2019-05-11T00:15:09.909Z,1.57
2019-05-11T00:17:37.685Z,2.60
2019-05-11T00:20:06.283Z,2.07
2019-05-11T00:22:33.957Z,1.90
2019-05-11T00:25:01.676Z,2.20
2019-05-11T00:27:29.470Z,2.43
2019-05-11T00:29:58.979Z,2.13
2019-05-11T00:32:26.734Z,2.10
2019-05-11T00:34:54.607Z,1.30
2019-05-11T00:37:22.369Z,1.80
2019-05-11T00:39:50.153Z,1.70
2019-05-11T00:42:18.001Z,1.63
2019-05-11T00:44:47.291Z,1.80
2019-05-11T00:47:15.361Z,1.00
2019-05-11T00:49:43.150Z,0.97
2019-05-11T00:52:10.901Z,1.47
2019-05-11T00:54:38.679Z,1.07
2019-05-11T00:57:06.542Z,1.23
2019-05-11T00:59:34.317Z,1.90
2019-05-11T01:02:02.079Z,2.13
2019-05-11T01:04:29.877Z,0.90
2019-05-11T01:06:57.716Z,1.13
2019-05-11T01:09:25.466Z,1.90
2019-05-11T01:11:53.233Z,1.23
2019-05-11T01:14:21.016Z,1.60
2019-05-11T01:16:48.882Z,1.47
2019-05-11T01:19:16.641Z,1.50
2019-05-11T01:21:44.288Z,1.80
2019-05-11T01:24:12.069Z,1.63
2019-05-11T01:26:39.837Z,1.60
2019-05-11T01:29:07.596Z,1.53
2019-05-11T01:31:35.377Z,1.73
2019-05-11T01:34:03.138Z,2.07
2019-05-11T01:36:30.837Z,0.70
2019-05-11T01:38:58.557Z,1.93
2019-05-11T01:41:26.840Z,1.17
2019-05-11T01:43:54.487Z,1.00
2019-05-11T01:46:22.264Z,1.43
2019-05-11T01:48:50.048Z,1.33
2019-05-11T01:51:17.812Z,1.10
2019-05-11T01:53:48.057Z,1.00
2019-05-11T01:56:14.840Z,1.33
2019-05-11T01:58:42.518Z,1.53
2019-05-11T02:01:10.301Z,1.67
2019-05-11T02:03:37.960Z,0.80
2019-05-11T02:06:05.686Z,1.10
2019-05-11T02:08:33.395Z,1.30
2019-05-11T02:11:14.969Z,1.17
2019-05-11T02:13:30.547Z,1.20
2019-05-11T02:15:58.354Z,1.10
2019-05-11T02:18:26.110Z,1.20
2019-05-11T02:20:53.763Z,0.60
2019-05-11T02:23:21.835Z,1.07
2019-05-11T02:25:49.467Z,0.60
2019-05-11T02:28:17.363Z,0.87
2019-05-11T02:30:45.250Z,0.63
2019-05-11T02:33:13.122Z,1.07
2019-05-11T02:35:41.184Z,0.40
2019-05-11T02:38:08.944Z,1.00
2019-05-11T02:40:36.709Z,1.10
2019-05-11T02:43:04.474Z,1.30
2019-05-11T02:45:33.560Z,1.27
2019-05-11T02:48:01.545Z,1.10
2019-05-11T02:50:29.515Z,1.63
2019-05-11T02:52:57.894Z,0.83
2019-05-11T02:55:25.653Z,1.33
2019-05-11T02:57:53.630Z,0.93
2019-05-11T03:00:22.812Z,1.10
2019-05-11T03:02:50.590Z,1.17
2019-05-11T03:05:18.342Z,0.87
2019-05-11T03:07:46.140Z,1.17
2019-05-11T03:10:13.893Z,1.00
2019-05-11T03:12:41.558Z,0.97
2019-05-11T03:15:09.328Z,1.27
2019-05-11T03:17:37.244Z,1.53
2019-05-11T03:20:06.491Z,0.98
2019-05-11T03:22:34.356Z,2.07
2019-05-11T03:25:02.236Z,0.97
2019-05-11T03:27:30.093Z,1.07
2019-05-11T03:30:00.740Z,0.90
2019-05-11T03:32:27.471Z,0.67
2019-05-11T03:34:55.342Z,0.90
2019-05-11T03:37:22.983Z,1.43
2019-05-11T03:39:50.766Z,1.10
2019-05-11T03:42:18.648Z,0.87
2019-05-11T03:44:46.281Z,0.70
2019-05-11T03:47:14.073Z,0.63
2019-05-11T03:49:41.839Z,0.73
2019-05-11T03:52:09.464Z,1.07
2019-05-11T03:54:37.520Z,2.23
2019-05-11T03:57:05.333Z,1.10
2019-05-11T03:59:33.205Z,0.30
2019-05-11T04:02:00.949Z,0.93
2019-05-11T04:04:28.732Z,0.87
2019-05-11T04:06:56.497Z,0.63
2019-05-11T04:09:24.144Z,0.77
2019-05-11T04:11:51.808Z,1.27
2019-05-11T04:14:19.698Z,1.33
2019-05-11T04:16:47.567Z,2.30
2019-05-11T04:19:15.330Z,1.50
2019-05-11T04:21:43.090Z,1.10
2019-05-11T04:24:10.962Z,0.73
2019-05-11T04:26:38.729Z,2.60
2019-05-11T04:29:06.493Z,1.87
2019-05-11T04:31:34.373Z,1.23
2019-05-11T04:34:02.108Z,2.57
2019-05-11T04:36:30.099Z,1.00
2019-05-11T04:38:57.968Z,1.20
2019-05-11T04:41:25.840Z,1.20
2019-05-11T04:43:53.611Z,0.70
2019-05-11T04:46:21.533Z,0.50
2019-05-11T04:48:49.205Z,1.27
2019-05-11T04:51:17.206Z,0.97
2019-05-11T04:53:44.983Z,4.97
2019-05-11T04:56:12.731Z,3.13
2019-05-11T04:58:40.515Z,1.60
2019-05-11T05:01:08.371Z,2.33
2019-05-11T05:03:40.906Z,1.73
2019-05-11T05:06:22.270Z,1.10
2019-05-11T05:08:35.131Z,1.20
2019-05-11T05:11:02.795Z,1.20
2019-05-11T05:13:31.559Z,1.00
2019-05-11T05:15:59.388Z,1.00
2019-05-11T05:18:27.245Z,1.87
2019-05-11T05:20:55.008Z,1.97
2019-05-11T05:23:22.769Z,2.17
2019-05-11T05:25:50.648Z,2.17
2019-05-11T05:28:18.514Z,1.87
2019-05-11T05:30:46.482Z,1.70
2019-05-11T05:33:14.242Z,2.07
2019-05-11T05:35:41.939Z,1.67
2019-05-11T05:38:09.683Z,1.47
2019-05-11T05:40:37.514Z,2.07
2019-05-11T05:43:05.188Z,1.47
2019-05-11T05:45:33.081Z,1.67
2019-05-11T05:48:00.947Z,2.20
2019-05-11T05:50:28.571Z,2.07
2019-05-11T05:52:56.374Z,1.33
2019-05-11T05:55:24.245Z,1.60
2019-05-11T05:57:52.115Z,1.50
2019-05-11T06:00:19.986Z,2.20
2019-05-11T06:02:47.737Z,2.63
2019-05-11T06:05:15.404Z,1.00
2019-05-11T06:07:43.072Z,2.50
2019-05-11T06:10:10.834Z,1.30
2019-05-11T06:12:38.524Z,1.33
2019-05-11T06:15:07.090Z,2.17
2019-05-11T06:17:34.990Z,1.57
2019-05-11T06:20:03.737Z,1.07
2019-05-11T06:22:31.809Z,1.37
2019-05-11T06:24:59.768Z,1.87
2019-05-11T06:27:27.549Z,1.40
2019-05-11T06:29:55.345Z,1.90
2019-05-11T06:32:22.980Z,1.80
2019-05-11T06:34:50.753Z,1.93
2019-05-11T06:37:18.447Z,1.57
2019-05-11T06:39:46.286Z,1.67
2019-05-11T06:42:14.046Z,1.93
2019-05-11T06:44:41.809Z,1.73
2019-05-11T06:47:09.679Z,1.90
2019-05-11T06:49:37.552Z,1.67
2019-05-11T06:52:05.431Z,1.33
2019-05-11T06:54:33.288Z,1.60
2019-05-11T06:57:01.043Z,1.50
2019-05-11T06:59:28.798Z,1.37
2019-05-11T07:01:56.443Z,2.10
2019-05-11T07:04:24.141Z,1.40
2019-05-11T07:06:51.844Z,2.20
2019-05-11T07:09:19.575Z,1.37
2019-05-11T07:11:47.544Z,1.67
2019-05-11T07:14:20.351Z,1.10
2019-05-11T07:16:44.627Z,1.30
2019-05-11T07:19:12.586Z,0.63
2019-05-11T07:21:40.342Z,1.40
2019-05-11T07:24:08.113Z,2.03
2019-05-11T07:26:35.810Z,1.03
2019-05-11T07:29:03.544Z,1.30
2019-05-11T07:31:31.220Z,1.40
2019-05-11T07:33:58.973Z,1.27
2019-05-11T07:36:28.228Z,1.17
2019-05-11T07:38:58.021Z,1.60
2019-05-11T07:41:27.937Z,0.77
2019-05-11T07:43:55.153Z,1.43
2019-05-11T07:46:22.804Z,0.80
2019-05-11T07:48:50.596Z,0.70
2019-05-11T07:51:18.455Z,1.73
2019-05-11T07:53:48.481Z,0.50
2019-05-11T07:56:15.505Z,1.43
2019-05-11T07:58:43.179Z,0.70
2019-05-11T08:01:11.058Z,1.50
2019-05-11T08:03:39.040Z,0.93
2019-05-11T08:06:08.877Z,0.50
2019-05-11T08:08:38.472Z,0.57
2019-05-11T08:11:07.949Z,0.70
2019-05-11T08:13:35.102Z,1.00
2019-05-11T08:16:02.755Z,0.83
2019-05-11T08:18:30.416Z,1.07
2019-05-11T08:20:58.427Z,0.50
2019-05-11T08:23:28.389Z,0.57
2019-05-11T08:25:57.904Z,0.70
2019-05-11T08:28:25.391Z,0.70
2019-05-11T08:30:53.261Z,0.60
2019-05-11T08:33:20.899Z,1.13
2019-05-11T08:35:48.640Z,0.47
2019-05-11T08:38:18.085Z,0.93
2019-05-11T08:40:47.884Z,0.77
2019-05-11T08:43:15.252Z,0.47
2019-05-11T08:45:43.126Z,0.33
2019-05-11T08:48:10.898Z,0.17
2019-05-11T08:50:38.868Z,0.53
2019-05-11T08:53:08.583Z,0.83
2019-05-11T08:55:38.072Z,1.07
2019-05-11T08:58:07.738Z,0.37
2019-05-11T09:00:34.840Z,0.80
2019-05-11T09:03:02.592Z,1.07
2019-05-11T09:05:30.482Z,0.73
2019-05-11T09:07:58.249Z,0.33
2019-05-11T09:10:28.103Z,0.27
2019-05-11T09:12:55.354Z,0.23
2019-05-11T09:15:33.530Z,0.27
2019-05-11T09:17:52.485Z,0.20
2019-05-11T09:20:20.362Z,0.70
2019-05-11T09:22:48.622Z,0.50
2019-05-11T09:25:18.241Z,0.50
2019-05-11T09:27:48.047Z,0.40
2019-05-11T09:30:15.408Z,0.50
2019-05-11T09:32:43.053Z,0.63
2019-05-11T09:35:10.842Z,0.57
2019-05-11T09:37:38.805Z,0.30
2019-05-11T09:40:07.908Z,0.30
2019-05-11T09:42:35.959Z,0.20
2019-05-11T09:45:04.031Z,0.53
2019-05-11T09:47:31.922Z,0.63
2019-05-11T09:49:59.575Z,0.57
2019-05-11T09:52:32.222Z,0.20
2019-05-11T09:54:58.374Z,0.23
2019-05-11T09:57:27.656Z,0.23
2019-05-11T09:59:55.543Z,0.00
2019-05-11T10:02:23.322Z,0.30
2019-05-11T10:04:51.095Z,0.17
2019-05-11T10:07:18.959Z,0.30
2019-05-11T10:09:47.837Z,0.27
2019-05-11T10:12:17.951Z,0.73
2019-05-11T10:14:45.013Z,0.20
2019-05-11T10:17:12.733Z,0.40
2019-05-11T10:19:40.554Z,0.23
2019-05-11T10:22:08.320Z,0.67
2019-05-11T10:24:38.325Z,0.40
2019-05-11T10:27:05.485Z,0.87
2019-05-11T10:29:34.000Z,1.10
2019-05-11T10:32:01.915Z,1.07
2019-05-11T10:34:29.625Z,0.30
2019-05-11T10:36:57.997Z,0.30
2019-05-11T10:39:27.951Z,0.30
2019-05-11T10:41:55.164Z,0.53
2019-05-11T10:44:22.934Z,0.20
2019-05-11T10:46:50.685Z,0.30
2019-05-11T10:49:18.599Z,0.20
2019-05-11T10:51:48.492Z,0.63
2019-05-11T10:54:15.825Z,0.30
2019-05-11T10:56:43.704Z,0.60
2019-05-11T10:59:11.447Z,0.90
2019-05-11T11:01:39.225Z,0.57
2019-05-11T11:04:07.827Z,0.20
2019-05-11T11:06:35.808Z,0.20
2019-05-11T11:09:04.382Z,0.40
2019-05-11T11:11:32.005Z,0.37
2019-05-11T11:13:59.801Z,0.40
2019-05-11T11:16:36.744Z,0.50
2019-05-11T11:18:58.837Z,0.23
2019-05-11T11:21:27.851Z,0.30
2019-05-11T11:23:58.555Z,0.10
2019-05-11T11:26:25.394Z,0.53
2019-05-11T11:28:53.262Z,0.10
2019-05-11T11:31:21.021Z,0.37
2019-05-11T11:33:49.184Z,1.27
2019-05-11T11:36:17.883Z,0.60
2019-05-11T11:38:47.908Z,0.40
2019-05-11T11:41:15.368Z,0.73
2019-05-11T11:43:43.134Z,0.60
2019-05-11T11:46:10.780Z,0.80
2019-05-11T11:48:38.650Z,0.80
2019-05-11T11:51:08.139Z,0.50
2019-05-11T11:53:38.182Z,0.50
2019-05-11T11:56:05.323Z,0.60
2019-05-11T11:58:33.206Z,0.40
2019-05-11T12:01:00.971Z,0.40
2019-05-11T12:03:28.649Z,0.43
2019-05-11T12:05:58.115Z,0.43
2019-05-11T12:08:28.042Z,0.70
2019-05-11T12:10:55.219Z,0.70
2019-05-11T12:13:26.116Z,0.40
2019-05-11T12:15:52.401Z,0.70
2019-05-11T12:18:20.034Z,0.40
2019-05-11T12:20:48.123Z,0.80
2019-05-11T12:23:17.909Z,0.33
2019-05-11T12:25:45.307Z,0.30
2019-05-11T12:28:13.054Z,0.33
2019-05-11T12:30:40.692Z,1.00
2019-05-11T12:33:08.590Z,0.40
2019-05-11T12:35:37.749Z,1.00
2019-05-11T12:38:07.606Z,0.40
2019-05-11T12:40:35.159Z,0.47
2019-05-11T12:43:03.031Z,0.67
2019-05-11T12:45:30.896Z,0.30
2019-05-11T12:47:58.773Z,0.20
2019-05-11T12:50:28.570Z,0.40
2019-05-11T12:52:58.612Z,0.20
2019-05-11T12:55:25.550Z,0.23
2019-05-11T12:57:53.308Z,0.70
2019-05-11T13:00:21.187Z,0.73
2019-05-11T13:02:48.944Z,0.23
2019-05-11T13:05:18.306Z,0.20
2019-05-11T13:07:48.019Z,0.27
2019-05-11T13:10:17.561Z,0.50
2019-05-11T13:12:45.009Z,0.57
2019-05-11T13:15:12.789Z,0.10
2019-05-11T13:17:41.107Z,0.47
2019-05-11T13:20:12.679Z,0.63
2019-05-11T13:22:38.967Z,0.20
2019-05-11T13:25:08.618Z,0.30
2019-05-11T13:27:38.550Z,0.40
2019-05-11T13:30:07.964Z,0.20
2019-05-11T13:32:38.249Z,0.30
2019-05-11T13:35:06.382Z,0.47
2019-05-11T13:37:34.169Z,0.07
2019-05-11T13:40:01.917Z,0.53
2019-05-11T13:42:29.694Z,0.30
2019-05-11T13:44:58.447Z,0.30
2019-05-11T13:47:28.313Z,0.20
2019-05-11T13:49:55.858Z,0.27
2019-05-11T13:52:23.514Z,0.40
2019-05-11T13:54:51.291Z,0.47
2019-05-11T13:57:19.157Z,0.40
2019-05-11T13:59:47.701Z,0.77
2019-05-11T14:02:17.889Z,0.50
2019-05-11T14:04:45.014Z,0.23
2019-05-11T14:07:12.885Z,0.50
2019-05-11T14:09:40.764Z,0.40
2019-05-11T14:12:08.509Z,0.40
2019-05-11T14:14:37.777Z,0.53
2019-05-11T14:17:08.112Z,0.60
2019-05-11T14:19:35.205Z,0.50
2019-05-11T14:22:03.156Z,0.20
2019-05-11T14:24:30.931Z,0.43
2019-05-11T14:26:58.627Z,0.40
2019-05-11T14:29:28.400Z,0.57
2019-05-11T14:31:57.386Z,1.40
2019-05-11T14:34:25.261Z,0.40
2019-05-11T14:36:53.134Z,0.13
2019-05-11T14:39:20.907Z,0.20
2019-05-11T14:41:48.901Z,0.40
2019-05-11T14:44:18.107Z,0.50
2019-05-11T14:46:47.829Z,0.57
2019-05-11T14:49:15.544Z,1.03
2019-05-11T14:51:43.412Z,0.37
2019-05-11T14:54:11.387Z,0.57
2019-05-11T14:56:39.148Z,0.77
2019-05-11T14:59:08.965Z,0.53
2019-05-11T15:01:38.102Z,0.23
2019-05-11T15:04:05.714Z,0.60
2019-05-11T15:06:33.498Z,0.27
2019-05-11T15:09:01.136Z,0.43
2019-05-11T15:11:28.804Z,0.30
2019-05-11T15:13:57.580Z,0.20
2019-05-11T15:16:27.730Z,0.10
2019-05-11T15:18:54.874Z,0.37
2019-05-11T15:21:22.612Z,0.37
2019-05-11T15:23:50.419Z,0.20
2019-05-11T15:26:18.756Z,0.40
2019-05-11T15:28:48.566Z,0.30
2019-05-11T15:31:19.480Z,0.30
2019-05-11T15:33:45.465Z,0.27
2019-05-11T15:36:13.332Z,0.10
2019-05-11T15:38:41.110Z,0.20
2019-05-11T15:41:08.975Z,0.30
2019-05-11T15:43:38.547Z,0.40
2019-05-11T15:46:06.051Z,0.83
2019-05-11T15:48:33.813Z,0.13
2019-05-11T15:51:01.677Z,0.43
2019-05-11T15:53:29.360Z,0.63
2019-05-11T15:55:59.588Z,0.77
2019-05-11T15:58:28.872Z,0.73
2019-05-11T16:00:55.821Z,0.37
2019-05-11T16:03:23.587Z,0.07
2019-05-11T16:05:51.545Z,0.40
2019-05-11T16:08:19.413Z,0.83
2019-05-11T16:10:48.855Z,0.40
2019-05-11T16:13:18.072Z,1.17
2019-05-11T16:15:47.705Z,0.50
2019-05-11T16:18:15.417Z,0.10
2019-05-11T16:20:43.191Z,0.20
2019-05-11T16:23:11.030Z,0.20
2019-05-11T16:25:41.025Z,0.10
2019-05-11T16:28:10.360Z,0.23
2019-05-11T16:30:37.868Z,0.20
2019-05-11T16:33:05.781Z,0.10
2019-05-11T16:35:33.489Z,0.20
2019-05-11T16:38:01.215Z,0.00
2019-05-11T16:40:29.525Z,0.30
2019-05-11T16:42:58.763Z,0.40
2019-05-11T16:45:28.168Z,0.33
2019-05-11T16:47:58.659Z,0.27
2019-05-11T16:50:28.057Z,0.20
2019-05-11T16:52:54.965Z,0.23
2019-05-11T16:55:22.748Z,0.53
2019-05-11T16:57:50.379Z,0.60
2019-05-11T17:00:18.061Z,1.20
2019-05-11T17:02:48.678Z,0.73
2019-05-11T17:05:26.058Z,0.87
2019-05-11T17:07:44.621Z,1.10
2019-05-11T17:10:12.498Z,0.40
2019-05-11T17:12:40.301Z,1.13
2019-05-11T17:15:08.798Z,0.23
2019-05-11T17:17:36.933Z,0.30
2019-05-11T17:20:07.928Z,0.35
2019-05-11T17:22:38.759Z,0.40
2019-05-11T17:27:38.538Z,0.67
2019-05-11T17:30:08.578Z,1.73
2019-05-11T17:32:38.322Z,2.23
2019-05-11T17:35:08.270Z,2.03
2019-05-11T17:37:37.851Z,2.97
2019-05-11T17:40:08.858Z,3.05
2019-05-11T17:42:37.857Z,2.23
2019-05-11T17:45:08.041Z,2.73
2019-05-11T17:47:35.507Z,2.50
2019-05-11T17:50:04.107Z,3.80
2019-05-11T17:52:31.968Z,8.57
2019-05-11T17:54:59.719Z,15.43
2019-05-11T17:57:27.836Z,17.23
2019-05-11T17:59:57.797Z,15.60
2019-05-11T18:02:25.195Z,14.60
2019-05-11T18:04:52.932Z,10.40
2019-05-11T18:07:27.495Z,7.27
2019-05-11T18:09:50.144Z,6.27
2019-05-11T18:12:17.886Z,4.43
2019-05-11T18:14:48.068Z,4.47
2019-05-11T18:17:15.053Z,2.73
2019-05-11T18:19:42.741Z,2.90
2019-05-11T18:22:10.484Z,2.50
2019-05-11T18:24:38.351Z,2.57
2019-05-11T18:27:08.260Z,3.10
2019-05-11T18:29:37.925Z,3.20
2019-05-11T18:32:05.746Z,4.70
2019-05-11T18:34:33.619Z,2.00
2019-05-11T18:37:01.487Z,1.90
2019-05-11T18:39:29.467Z,2.43
2019-05-11T18:41:58.690Z,1.63
2019-05-11T18:44:26.730Z,2.23
2019-05-11T18:46:54.485Z,1.03
2019-05-11T18:49:22.191Z,1.90
2019-05-11T18:51:50.131Z,1.77
2019-05-11T18:54:19.114Z,3.53
2019-05-11T18:56:48.840Z,5.23
2019-05-11T18:59:16.503Z,6.63
2019-05-11T19:01:44.370Z,5.47
2019-05-11T19:04:12.236Z,1.80
2019-05-11T19:06:39.979Z,2.23
2019-05-11T19:09:08.075Z,1.93
2019-05-11T19:11:38.105Z,0.93
2019-05-11T19:14:05.549Z,1.15
2019-05-11T19:16:33.423Z,3.67
2019-05-11T19:19:01.179Z,3.63
2019-05-11T19:21:28.950Z,3.33
2019-05-11T19:23:58.116Z,1.90
2019-05-11T19:26:26.981Z,0.80
2019-05-11T19:28:54.806Z,0.97
2019-05-11T19:31:23.408Z,0.57
2019-05-11T19:33:51.153Z,1.73
2019-05-11T19:36:18.906Z,1.17
2019-05-11T19:38:47.838Z,1.47
2019-05-11T19:41:18.362Z,1.17
2019-05-11T19:43:45.303Z,1.10
2019-05-11T19:46:12.990Z,1.97
2019-05-11T19:48:40.734Z,1.00
2019-05-11T19:51:11.759Z,1.00
2019-05-11T19:53:38.613Z,2.13
2019-05-11T19:56:07.774Z,1.00
2019-05-11T19:58:37.919Z,1.13
2019-05-11T20:01:05.080Z,0.77
2019-05-11T20:03:32.858Z,0.90
2019-05-11T20:06:00.720Z,1.10
2019-05-11T20:08:29.014Z,1.20
2019-05-11T20:10:57.067Z,1.77
2019-05-11T20:13:24.712Z,0.63
2019-05-11T20:15:52.613Z,1.03
2019-05-11T20:18:20.471Z,1.40
2019-05-11T20:20:48.188Z,0.63
2019-05-11T20:23:15.994Z,1.50
2019-05-11T20:25:43.762Z,1.77
2019-05-11T20:28:11.421Z,1.53
2019-05-11T20:30:39.194Z,0.97
2019-05-11T20:33:08.704Z,1.03
2019-05-11T20:35:38.230Z,1.13
2019-05-11T20:38:08.473Z,1.17
2019-05-11T20:40:35.280Z,0.60
2019-05-11T20:43:03.148Z,1.20
2019-05-11T20:45:30.823Z,1.33
2019-05-11T20:47:58.499Z,1.23
2019-05-11T20:50:26.157Z,0.83
2019-05-11T20:52:53.882Z,1.10
2019-05-11T20:55:21.665Z,0.90
2019-05-11T20:57:49.330Z,1.37
2019-05-11T21:00:18.666Z,1.53
2019-05-11T21:02:48.684Z,0.77
2019-05-11T21:05:18.245Z,1.03
2019-05-11T21:07:48.263Z,0.80
2019-05-11T21:10:16.762Z,0.80
2019-05-11T21:12:44.523Z,1.73
2019-05-11T21:15:12.498Z,0.67
2019-05-11T21:17:40.124Z,1.63
2019-05-11T21:20:08.128Z,2.13
2019-05-11T21:22:40.030Z,0.83
2019-05-11T21:25:05.817Z,1.27
2019-05-11T21:27:33.500Z,1.83
2019-05-11T21:30:01.454Z,1.93
2019-05-11T21:32:29.195Z,0.87
2019-05-11T21:35:00.795Z,0.80
2019-05-11T21:37:27.850Z,1.77
2019-05-11T21:39:57.798Z,0.83
2019-05-11T21:42:25.283Z,0.83
2019-05-11T21:44:53.168Z,1.20
2019-05-11T21:47:20.808Z,0.47
2019-05-11T21:49:48.628Z,1.30
2019-05-11T21:52:18.127Z,1.27
2019-05-11T21:54:46.069Z,1.27
2019-05-11T21:57:13.847Z,1.10
2019-05-11T21:59:41.688Z,1.40
2019-05-11T22:02:11.049Z,1.13
2019-05-11T22:04:38.901Z,1.53
2019-05-11T22:07:09.853Z,0.97
2019-05-11T22:09:38.433Z,1.13
2019-05-11T22:12:07.849Z,1.33
2019-05-11T22:14:35.709Z,2.10
2019-05-11T22:17:03.544Z,0.60
2019-05-11T22:19:31.414Z,1.40
2019-05-11T22:21:59.282Z,1.17
2019-05-11T22:24:28.300Z,1.33
2019-05-11T22:26:57.477Z,1.10
2019-05-11T22:29:25.340Z,1.67
2019-05-11T22:31:53.047Z,1.07
2019-05-11T22:34:20.769Z,1.23
2019-05-11T22:36:48.443Z,2.10
2019-05-11T22:39:20.572Z,1.33
2019-05-11T22:41:48.039Z,1.63
2019-05-11T22:44:15.002Z,1.37
2019-05-11T22:46:42.965Z,1.63
2019-05-11T22:49:10.641Z,1.27
2019-05-11T22:51:38.509Z,1.43
2019-05-11T22:54:10.767Z,1.87
2019-05-11T22:56:37.842Z,2.10
2019-05-11T22:59:05.087Z,2.67
2019-05-11T23:01:33.475Z,2.80
2019-05-11T23:04:01.243Z,1.57
2019-05-11T23:06:29.103Z,2.17
2019-05-11T23:08:58.739Z,1.30
2019-05-11T23:11:28.343Z,1.33
2019-05-11T23:13:55.683Z,1.93
2019-05-11T23:16:23.541Z,2.47
2019-05-11T23:18:51.306Z,2.83
2019-05-11T23:21:19.069Z,2.40
2019-05-11T23:23:47.807Z,1.90
2019-05-11T23:26:17.673Z,2.17
2019-05-11T23:28:45.144Z,1.63
2019-05-11T23:31:12.901Z,1.30
2019-05-11T23:33:40.778Z,1.47
2019-05-11T23:36:08.643Z,2.83
2019-05-11T23:38:38.548Z,2.77
2019-05-11T23:41:08.121Z,2.20
2019-05-11T23:43:35.116Z,2.43
2019-05-11T23:46:02.868Z,1.40
2019-05-11T23:48:30.525Z,2.53
2019-05-11T23:50:58.414Z,2.00
2019-05-11T23:53:28.070Z,1.63
2019-05-11T23:55:57.793Z,2.17
2019-05-11T23:58:24.932Z,2.50
